sensor_id;sensor_type;location;lat;lon;timestamp;pressure;altitude;pressure_sealevel;temperature;humidity
59106;BME280;44891;50.204;8.132;2023-04-05T00:00:22;98897.03;;;0.90;70.31
59106;BME280;44891;50.204;8.132;2023-04-05T00:04:24;98901.84;;;0.76;70.96
59106;BME280;44891;50.204;8.132;2023-04-05T00:08:25;98902.84;;;0.75;71.36
59106;BME280;44891;50.204;8.132;2023-04-05T00:12:29;98904.91;;;0.64;71.54
59106;BME280;44891;50.204;8.132;2023-04-05T00:16:31;98906.69;;;0.71;71.67
59106;BME280;44891;50.204;8.132;2023-04-05T00:20:33;98901.88;;;0.85;71.22
59106;BME280;44891;50.204;8.132;2023-04-05T00:24:37;98894.63;;;0.80;71.96
59106;BME280;44891;50.204;8.132;2023-04-05T00:28:42;98883.47;;;0.79;72.02
59106;BME280;44891;50.204;8.132;2023-04-05T00:32:46;98885.56;;;0.84;71.58
59106;BME280;44891;50.204;8.132;2023-04-05T00:36:47;98883.44;;;0.71;71.19
59106;BME280;44891;50.204;8.132;2023-04-05T00:40:49;98879.34;;;0.52;72.04
59106;BME280;44891;50.204;8.132;2023-04-05T00:44:52;98881.63;;;0.64;71.51
59106;BME280;44891;50.204;8.132;2023-04-05T00:48:54;98885.19;;;0.54;72.04
59106;BME280;44891;50.204;8.132;2023-04-05T00:52:56;98884.28;;;0.80;71.46
59106;BME280;44891;50.204;8.132;2023-04-05T00:56:58;98880.84;;;0.71;70.77
59106;BME280;44891;50.204;8.132;2023-04-05T01:01:06;98875.47;;;0.48;71.57
59106;BME280;44891;50.204;8.132;2023-04-05T01:05:23;98869.72;;;0.20;73.42
59106;BME280;44891;50.204;8.132;2023-04-05T01:09:36;98864.81;;;0.51;72.45
59106;BME280;44891;50.204;8.132;2023-04-05T01:13:43;98867.53;;;0.42;72.95
59106;BME280;44891;50.204;8.132;2023-04-05T01:17:47;98855.91;;;0.46;72.69
59106;BME280;44891;50.204;8.132;2023-04-05T01:21:57;98853.50;;;0.02;74.49
59106;BME280;44891;50.204;8.132;2023-04-05T01:30:35;98841.91;;;-0.20;75.83
59106;BME280;44891;50.204;8.132;2023-04-05T01:34:39;98836.56;;;-0.27;75.92
59106;BME280;44891;50.204;8.132;2023-04-05T01:38:48;98846.22;;;-0.03;75.21
59106;BME280;44891;50.204;8.132;2023-04-05T01:42:50;98843.72;;;0.14;73.97
59106;BME280;44891;50.204;8.132;2023-04-05T01:46:53;98834.03;;;0.16;74.38
59106;BME280;44891;50.204;8.132;2023-04-05T01:50:55;98830.47;;;-0.25;74.66
59106;BME280;44891;50.204;8.132;2023-04-05T01:54:57;98829.34;;;-0.23;75.17
59106;BME280;44891;50.204;8.132;2023-04-05T01:58:59;98836.00;;;-0.12;74.35
59106;BME280;44891;50.204;8.132;2023-04-05T02:03:02;98839.91;;;-0.34;75.47
59106;BME280;44891;50.204;8.132;2023-04-05T02:07:04;98840.19;;;-0.19;75.91
59106;BME280;44891;50.204;8.132;2023-04-05T02:11:06;98839.97;;;-0.26;75.32
59106;BME280;44891;50.204;8.132;2023-04-05T02:15:08;98836.44;;;-0.25;74.85
59106;BME280;44891;50.204;8.132;2023-04-05T02:19:11;98829.28;;;-0.05;74.11
59106;BME280;44891;50.204;8.132;2023-04-05T02:23:16;98828.91;;;-0.70;76.07
59106;BME280;44891;50.204;8.132;2023-04-05T02:27:18;98827.28;;;-0.45;75.62
59106;BME280;44891;50.204;8.132;2023-04-05T02:31:20;98821.38;;;-0.64;75.77
59106;BME280;44891;50.204;8.132;2023-04-05T02:35:23;98814.19;;;-0.52;75.46
59106;BME280;44891;50.204;8.132;2023-04-05T02:39:25;98816.66;;;-0.68;76.09
59106;BME280;44891;50.204;8.132;2023-04-05T02:43:28;98826.72;;;-0.57;75.76
59106;BME280;44891;50.204;8.132;2023-04-05T02:47:30;98828.34;;;-0.56;75.29
59106;BME280;44891;50.204;8.132;2023-04-05T02:51:35;98821.38;;;-1.07;77.73
59106;BME280;44891;50.204;8.132;2023-04-05T02:55:41;98813.16;;;-0.85;76.71
59106;BME280;44891;50.204;8.132;2023-04-05T02:59:43;98814.63;;;-0.83;76.59
59106;BME280;44891;50.204;8.132;2023-04-05T03:03:45;98822.34;;;-0.65;75.74
59106;BME280;44891;50.204;8.132;2023-04-05T03:07:50;98819.84;;;-0.48;74.61
59106;BME280;44891;50.204;8.132;2023-04-05T03:11:55;98814.19;;;-0.52;74.12
59106;BME280;44891;50.204;8.132;2023-04-05T03:15:57;98811.84;;;-0.89;75.71
59106;BME280;44891;50.204;8.132;2023-04-05T03:20:02;98806.59;;;-0.79;75.38
59106;BME280;44891;50.204;8.132;2023-04-05T03:24:10;98796.16;;;-0.96;76.32
59106;BME280;44891;50.204;8.132;2023-04-05T03:28:15;98809.50;;;-1.00;76.22
59106;BME280;44891;50.204;8.132;2023-04-05T03:32:20;98804.72;;;-1.13;76.76
59106;BME280;44891;50.204;8.132;2023-04-05T03:36:29;98804.66;;;-1.03;76.52
59106;BME280;44891;50.204;8.132;2023-04-05T03:40:44;98802.31;;;-1.15;76.95
59106;BME280;44891;50.204;8.132;2023-04-05T03:44:47;98803.31;;;-1.07;76.28
59106;BME280;44891;50.204;8.132;2023-04-05T03:48:49;98803.13;;;-1.32;77.25
59106;BME280;44891;50.204;8.132;2023-04-05T03:52:51;98800.72;;;-1.51;78.40
59106;BME280;44891;50.204;8.132;2023-04-05T03:56:54;98809.91;;;-1.31;78.09
59106;BME280;44891;50.204;8.132;2023-04-05T04:00:57;98809.00;;;-1.22;77.31
59106;BME280;44891;50.204;8.132;2023-04-05T04:04:59;98811.75;;;-1.23;76.93
59106;BME280;44891;50.204;8.132;2023-04-05T04:09:01;98801.13;;;-1.56;78.36
59106;BME280;44891;50.204;8.132;2023-04-05T04:13:06;98804.91;;;-1.50;77.26
59106;BME280;44891;50.204;8.132;2023-04-05T04:17:08;98807.09;;;-1.55;78.00
59106;BME280;44891;50.204;8.132;2023-04-05T04:21:33;98800.56;;;-1.32;76.79
59106;BME280;44891;50.204;8.132;2023-04-05T04:25:57;98800.16;;;-1.73;77.96
59106;BME280;44891;50.204;8.132;2023-04-05T04:30:18;98807.13;;;-1.83;79.16
59106;BME280;44891;50.204;8.132;2023-04-05T04:34:42;98801.06;;;-1.64;78.94
59106;BME280;44891;50.204;8.132;2023-04-05T04:39:05;98805.56;;;-1.94;79.72
59106;BME280;44891;50.204;8.132;2023-04-05T04:43:23;98802.94;;;-1.84;80.23
59106;BME280;44891;50.204;8.132;2023-04-05T04:47:40;98794.53;;;-1.86;79.52
59106;BME280;44891;50.204;8.132;2023-04-05T04:51:59;98721.19;;;-2.17;78.52
59106;BME280;44891;50.204;8.132;2023-04-05T04:56:04;98805.09;;;-1.61;77.67
59106;BME280;44891;50.204;8.132;2023-04-05T05:00:06;98805.47;;;-1.56;77.51
59106;BME280;44891;50.204;8.132;2023-04-05T05:04:14;98810.56;;;-1.65;77.69
59106;BME280;44891;50.204;8.132;2023-04-05T05:08:16;98807.91;;;-1.55;77.45
59106;BME280;44891;50.204;8.132;2023-04-05T05:12:19;98799.91;;;-1.52;76.00
59106;BME280;44891;50.204;8.132;2023-04-05T05:16:21;98812.59;;;-1.68;77.41
59106;BME280;44891;50.204;8.132;2023-04-05T05:20:24;98811.59;;;-1.85;77.83
59106;BME280;44891;50.204;8.132;2023-04-05T05:24:26;98808.88;;;-1.56;76.34
59106;BME280;44891;50.204;8.132;2023-04-05T05:28:28;98816.16;;;-1.51;76.11
59106;BME280;44891;50.204;8.132;2023-04-05T05:32:30;98809.75;;;-1.29;75.71
59106;BME280;44891;50.204;8.132;2023-04-05T05:36:33;98806.28;;;-1.20;75.98
59106;BME280;44891;50.204;8.132;2023-04-05T05:40:35;98803.25;;;-1.16;76.03
59106;BME280;44891;50.204;8.132;2023-04-05T05:44:37;98742.19;;;-1.59;76.08
59106;BME280;44891;50.204;8.132;2023-04-05T05:48:39;98799.13;;;-1.08;75.97
59106;BME280;44891;50.204;8.132;2023-04-05T05:52:42;98806.31;;;-0.94;75.65
59106;BME280;44891;50.204;8.132;2023-04-05T05:56:45;98809.63;;;-0.84;75.09
59106;BME280;44891;50.204;8.132;2023-04-05T06:00:47;98807.41;;;-0.79;75.39
59106;BME280;44891;50.204;8.132;2023-04-05T06:04:51;98809.50;;;-1.00;76.65
59106;BME280;44891;50.204;8.132;2023-04-05T06:08:55;98807.41;;;-0.79;75.97
59106;BME280;44891;50.204;8.132;2023-04-05T06:12:57;98813.03;;;-0.58;75.32
59106;BME280;44891;50.204;8.132;2023-04-05T06:16:59;98809.63;;;-0.58;74.95
59106;BME280;44891;50.204;8.132;2023-04-05T06:21:01;98805.53;;;-0.43;74.41
59106;BME280;44891;50.204;8.132;2023-04-05T06:25:04;98817.56;;;-0.25;74.75
59106;BME280;44891;50.204;8.132;2023-04-05T06:29:06;98814.59;;;-0.05;73.86
59106;BME280;44891;50.204;8.132;2023-04-05T06:33:08;98817.56;;;0.17;72.21
59106;BME280;44891;50.204;8.132;2023-04-05T06:37:10;98823.88;;;0.31;71.91
59106;BME280;44891;50.204;8.132;2023-04-05T06:41:13;98823.28;;;0.45;71.89
59106;BME280;44891;50.204;8.132;2023-04-05T06:45:15;98819.44;;;0.57;71.37
59106;BME280;44891;50.204;8.132;2023-04-05T06:49:18;98816.38;;;0.70;71.29
59106;BME280;44891;50.204;8.132;2023-04-05T06:53:20;98756.94;;;0.53;70.50
59106;BME280;44891;50.204;8.132;2023-04-05T06:57:24;98817.38;;;1.01;70.51
59106;BME280;44891;50.204;8.132;2023-04-05T07:01:26;98750.78;;;0.79;70.58
59106;BME280;44891;50.204;8.132;2023-04-05T07:05:28;98814.09;;;1.40;69.76
59106;BME280;44891;50.204;8.132;2023-04-05T07:09:30;98810.66;;;1.56;69.66
59106;BME280;44891;50.204;8.132;2023-04-05T07:13:34;98813.88;;;1.66;69.77
59106;BME280;44891;50.204;8.132;2023-04-05T07:17:36;98801.06;;;1.81;69.90
59106;BME280;44891;50.204;8.132;2023-04-05T07:21:37;98804.38;;;1.98;69.89
59106;BME280;44891;50.204;8.132;2023-04-05T07:25:39;98793.31;;;2.12;68.07
59106;BME280;44891;50.204;8.132;2023-04-05T07:29:42;98801.47;;;2.32;67.58
59106;BME280;44891;50.204;8.132;2023-04-05T07:33:45;98791.63;;;2.50;67.07
59106;BME280;44891;50.204;8.132;2023-04-05T07:37:46;98792.78;;;2.70;65.68
59106;BME280;44891;50.204;8.132;2023-04-05T07:41:48;98798.25;;;2.98;65.62
59106;BME280;44891;50.204;8.132;2023-04-05T07:45:59;98796.41;;;3.22;63.55
59106;BME280;44891;50.204;8.132;2023-04-05T07:50:01;98797.53;;;3.42;62.21
59106;BME280;44891;50.204;8.132;2023-04-05T07:54:04;98801.75;;;3.58;60.84
59106;BME280;44891;50.204;8.132;2023-04-05T07:58:06;98796.38;;;3.74;58.86
59106;BME280;44891;50.204;8.132;2023-04-05T08:02:09;98797.19;;;3.90;58.65
59106;BME280;44891;50.204;8.132;2023-04-05T08:06:11;98804.06;;;4.12;57.35
59106;BME280;44891;50.204;8.132;2023-04-05T08:10:13;98797.28;;;4.32;55.83
59106;BME280;44891;50.204;8.132;2023-04-05T08:14:15;98800.56;;;4.56;55.19
59106;BME280;44891;50.204;8.132;2023-04-05T08:18:18;98790.50;;;4.74;52.46
59106;BME280;44891;50.204;8.132;2023-04-05T08:22:20;98787.25;;;4.94;52.82
59106;BME280;44891;50.204;8.132;2023-04-05T08:26:22;98791.16;;;5.04;52.57
59106;BME280;44891;50.204;8.132;2023-04-05T08:30:24;98779.31;;;5.23;52.36
59106;BME280;44891;50.204;8.132;2023-04-05T08:34:27;98782.41;;;5.40;51.29
59106;BME280;44891;50.204;8.132;2023-04-05T08:38:29;98778.84;;;5.47;50.93
59106;BME280;44891;50.204;8.132;2023-04-05T08:42:33;98771.69;;;5.56;50.44
59106;BME280;44891;50.204;8.132;2023-04-05T08:46:36;98770.03;;;5.83;48.09
59106;BME280;44891;50.204;8.132;2023-04-05T08:50:40;98766.44;;;5.84;48.10
59106;BME280;44891;50.204;8.132;2023-04-05T08:54:42;98767.75;;;6.02;49.12
59106;BME280;44891;50.204;8.132;2023-04-05T08:58:45;98766.16;;;6.14;48.68
59106;BME280;44891;50.204;8.132;2023-04-05T09:02:49;98767.66;;;6.49;46.53
59106;BME280;44891;50.204;8.132;2023-04-05T09:06:56;98770.53;;;6.68;44.61
59106;BME280;44891;50.204;8.132;2023-04-05T09:10:59;98768.50;;;6.57;43.17
59106;BME280;44891;50.204;8.132;2023-04-05T09:15:00;98762.84;;;6.46;43.11
59106;BME280;44891;50.204;8.132;2023-04-05T09:19:02;98761.66;;;6.49;43.17
59106;BME280;44891;50.204;8.132;2023-04-05T09:23:06;98758.06;;;6.83;42.70
59106;BME280;44891;50.204;8.132;2023-04-05T09:27:08;98758.06;;;7.09;41.80
59106;BME280;44891;50.204;8.132;2023-04-05T09:35:28;98710.25;;;7.22;42.32
59106;BME280;44891;50.204;8.132;2023-04-05T09:39:32;98754.69;;;7.87;41.28
59106;BME280;44891;50.204;8.132;2023-04-05T09:43:35;98755.19;;;7.51;40.80
59106;BME280;44891;50.204;8.132;2023-04-05T09:47:37;98752.94;;;7.74;40.38
59106;BME280;44891;50.204;8.132;2023-04-05T09:51:41;98748.69;;;7.80;41.57
59106;BME280;44891;50.204;8.132;2023-04-05T09:55:47;98752.69;;;8.27;42.41
59106;BME280;44891;50.204;8.132;2023-04-05T09:59:49;98742.19;;;8.34;40.41
59106;BME280;44891;50.204;8.132;2023-04-05T10:03:51;98750.63;;;8.42;39.34
59106;BME280;44891;50.204;8.132;2023-04-05T10:07:52;98740.09;;;8.11;39.17
59106;BME280;44891;50.204;8.132;2023-04-05T10:11:56;98746.13;;;8.11;39.91
59106;BME280;44891;50.204;8.132;2023-04-05T10:15:59;98740.47;;;8.59;41.12
59106;BME280;44891;50.204;8.132;2023-04-05T10:20:06;98731.63;;;9.04;40.30
59106;BME280;44891;50.204;8.132;2023-04-05T10:24:17;98738.97;;;8.95;39.88
59106;BME280;44891;50.204;8.132;2023-04-05T10:28:28;98732.22;;;9.49;39.15
59106;BME280;44891;50.204;8.132;2023-04-05T10:32:34;98718.63;;;9.15;38.14
59106;BME280;44891;50.204;8.132;2023-04-05T10:36:41;98716.59;;;9.17;37.17
59106;BME280;44891;50.204;8.132;2023-04-05T10:40:46;98715.81;;;9.35;38.80
59106;BME280;44891;50.204;8.132;2023-04-05T10:44:51;98716.63;;;9.72;38.39
59106;BME280;44891;50.204;8.132;2023-04-05T10:48:56;98719.56;;;10.13;37.15
59106;BME280;44891;50.204;8.132;2023-04-05T10:53:00;98712.91;;;10.28;36.90
59106;BME280;44891;50.204;8.132;2023-04-05T10:57:03;98711.38;;;10.62;36.31
59106;BME280;44891;50.204;8.132;2023-04-05T11:01:07;98710.97;;;10.35;37.00
59106;BME280;44891;50.204;8.132;2023-04-05T11:09:26;98706.63;;;10.71;34.71
59106;BME280;44891;50.204;8.132;2023-04-05T11:17:58;98695.41;;;10.87;34.89
59106;BME280;44891;50.204;8.132;2023-04-05T11:22:02;98688.09;;;11.25;33.63
59106;BME280;44891;50.204;8.132;2023-04-05T11:26:05;98694.84;;;11.32;34.44
59106;BME280;44891;50.204;8.132;2023-04-05T11:30:07;98691.56;;;11.77;35.07
59106;BME280;44891;50.204;8.132;2023-04-05T11:34:10;98681.19;;;11.47;33.15
59106;BME280;44891;50.204;8.132;2023-04-05T11:38:16;98680.78;;;11.38;34.62
59106;BME280;44891;50.204;8.132;2023-04-05T11:42:21;98675.06;;;11.82;34.12
59106;BME280;44891;50.204;8.132;2023-04-05T11:46:30;98676.31;;;11.79;33.36
59106;BME280;44891;50.204;8.132;2023-04-05T11:50:34;98668.16;;;11.92;33.55
59106;BME280;44891;50.204;8.132;2023-04-05T11:54:36;98666.25;;;12.16;33.12
59106;BME280;44891;50.204;8.132;2023-04-05T11:58:39;98670.03;;;12.71;31.89
59106;BME280;44891;50.204;8.132;2023-04-05T12:02:41;98660.50;;;13.42;31.34
59106;BME280;44891;50.204;8.132;2023-04-05T12:06:45;98659.25;;;13.11;30.70
59106;BME280;44891;50.204;8.132;2023-04-05T12:10:54;98659.31;;;12.61;30.42
59106;BME280;44891;50.204;8.132;2023-04-05T12:14:59;98657.56;;;12.66;31.84
59106;BME280;44891;50.204;8.132;2023-04-05T12:19:01;98645.41;;;13.38;30.10
59106;BME280;44891;50.204;8.132;2023-04-05T12:23:04;98634.69;;;13.98;29.84
59106;BME280;44891;50.204;8.132;2023-04-05T12:27:06;98638.75;;;14.70;28.71
59106;BME280;44891;50.204;8.132;2023-04-05T12:31:09;98642.81;;;14.83;29.01
59106;BME280;44891;50.204;8.132;2023-04-05T12:35:12;98639.84;;;14.42;28.09
59106;BME280;44891;50.204;8.132;2023-04-05T12:39:15;98628.34;;;14.53;28.82
59106;BME280;44891;50.204;8.132;2023-04-05T12:43:17;98630.88;;;15.22;26.65
59106;BME280;44891;50.204;8.132;2023-04-05T12:47:20;98631.69;;;16.37;25.71
59106;BME280;44891;50.204;8.132;2023-04-05T12:51:22;98613.34;;;16.96;24.33
59106;BME280;44891;50.204;8.132;2023-04-05T12:55:26;98613.19;;;17.42;24.09
59106;BME280;44891;50.204;8.132;2023-04-05T12:59:28;98600.41;;;18.62;24.12
59106;BME280;44891;50.204;8.132;2023-04-05T13:03:30;98598.28;;;21.73;21.91
59106;BME280;44891;50.204;8.132;2023-04-05T13:07:32;98592.75;;;22.90;20.02
59106;BME280;44891;50.204;8.132;2023-04-05T13:11:35;98578.75;;;24.10;18.88
59106;BME280;44891;50.204;8.132;2023-04-05T13:15:37;98574.66;;;24.77;18.62
59106;BME280;44891;50.204;8.132;2023-04-05T13:19:39;98569.94;;;23.84;18.57
59106;BME280;44891;50.204;8.132;2023-04-05T13:23:41;98564.41;;;23.98;18.21
59106;BME280;44891;50.204;8.132;2023-04-05T13:27:44;98573.84;;;24.38;17.93
59106;BME280;44891;50.204;8.132;2023-04-05T13:31:46;98567.59;;;25.53;17.80
59106;BME280;44891;50.204;8.132;2023-04-05T13:35:48;98560.91;;;25.17;17.67
59106;BME280;44891;50.204;8.132;2023-04-05T13:39:50;98561.91;;;24.95;17.55
59106;BME280;44891;50.204;8.132;2023-04-05T13:43:53;98559.72;;;24.97;16.83
59106;BME280;44891;50.204;8.132;2023-04-05T13:47:55;98557.97;;;25.52;19.02
59106;BME280;44891;50.204;8.132;2023-04-05T13:51:56;98552.66;;;24.84;17.50
59106;BME280;44891;50.204;8.132;2023-04-05T13:55:58;98541.00;;;24.24;18.01
59106;BME280;44891;50.204;8.132;2023-04-05T14:00:02;98534.56;;;23.99;17.94
59106;BME280;44891;50.204;8.132;2023-04-05T14:04:12;98527.44;;;24.03;17.64
59106;BME280;44891;50.204;8.132;2023-04-05T14:08:14;98531.19;;;25.55;16.99
59106;BME280;44891;50.204;8.132;2023-04-05T14:12:16;98522.72;;;25.86;16.48
59106;BME280;44891;50.204;8.132;2023-04-05T14:16:19;98531.44;;;25.41;16.33
59106;BME280;44891;50.204;8.132;2023-04-05T14:20:21;98531.34;;;25.38;16.11
59106;BME280;44891;50.204;8.132;2023-04-05T14:24:23;98519.16;;;24.81;17.23
59106;BME280;44891;50.204;8.132;2023-04-05T14:28:25;98522.72;;;23.57;18.41
59106;BME280;44891;50.204;8.132;2023-04-05T14:32:28;98517.72;;;21.88;20.42
59106;BME280;44891;50.204;8.132;2023-04-05T14:36:30;98503.25;;;22.91;18.74
59106;BME280;44891;50.204;8.132;2023-04-05T14:40:32;98498.75;;;23.17;19.25
59106;BME280;44891;50.204;8.132;2023-04-05T14:44:34;98498.47;;;22.08;19.93
59106;BME280;44891;50.204;8.132;2023-04-05T14:48:37;98494.75;;;22.49;19.45
59106;BME280;44891;50.204;8.132;2023-04-05T14:52:39;98490.78;;;22.38;19.60
59106;BME280;44891;50.204;8.132;2023-04-05T14:56:41;98485.38;;;22.60;19.11
59106;BME280;44891;50.204;8.132;2023-04-05T15:00:43;98487.25;;;21.75;20.18
59106;BME280;44891;50.204;8.132;2023-04-05T15:04:46;98487.94;;;21.81;20.25
59106;BME280;44891;50.204;8.132;2023-04-05T15:08:48;98483.19;;;21.55;20.90
59106;BME280;44891;50.204;8.132;2023-04-05T15:12:50;98485.03;;;20.69;20.71
59106;BME280;44891;50.204;8.132;2023-04-05T15:16:52;98487.63;;;18.87;22.75
59106;BME280;44891;50.204;8.132;2023-04-05T15:20:56;98484.84;;;20.05;21.96
59106;BME280;44891;50.204;8.132;2023-04-05T15:24:58;98486.44;;;20.20;21.16
59106;BME280;44891;50.204;8.132;2023-04-05T15:29:00;98478.16;;;20.21;21.20
59106;BME280;44891;50.204;8.132;2023-04-05T15:33:02;98467.66;;;19.65;21.48
59106;BME280;44891;50.204;8.132;2023-04-05T15:37:05;98474.63;;;19.04;22.16
59106;BME280;44891;50.204;8.132;2023-04-05T15:41:07;98473.84;;;19.22;21.71
59106;BME280;44891;50.204;8.132;2023-04-05T15:45:09;98469.75;;;19.11;21.67
59106;BME280;44891;50.204;8.132;2023-04-05T15:49:11;98463.84;;;18.95;21.76
59106;BME280;44891;50.204;8.132;2023-04-05T15:53:14;98462.34;;;18.12;22.77
59106;BME280;44891;50.204;8.132;2023-04-05T15:57:16;98456.00;;;18.08;22.89
59106;BME280;44891;50.204;8.132;2023-04-05T16:01:19;98464.56;;;17.32;23.87
59106;BME280;44891;50.204;8.132;2023-04-05T16:05:21;98461.69;;;17.23;23.91
59106;BME280;44891;50.204;8.132;2023-04-05T16:09:24;98462.75;;;17.61;22.91
59106;BME280;44891;50.204;8.132;2023-04-05T16:13:26;98451.91;;;16.64;24.05
59106;BME280;44891;50.204;8.132;2023-04-05T16:17:27;98449.97;;;15.85;25.25
59106;BME280;44891;50.204;8.132;2023-04-05T16:21:30;98451.66;;;14.87;25.58
59106;BME280;44891;50.204;8.132;2023-04-05T16:25:33;98454.75;;;13.79;27.04
59106;BME280;44891;50.204;8.132;2023-04-05T16:29:35;98451.28;;;12.93;28.23
59106;BME280;44891;50.204;8.132;2023-04-05T16:33:37;98456.25;;;12.45;28.37
59106;BME280;44891;50.204;8.132;2023-04-05T16:37:39;98453.28;;;12.20;29.28
59106;BME280;44891;50.204;8.132;2023-04-05T16:41:43;98449.81;;;11.97;29.46
59106;BME280;44891;50.204;8.132;2023-04-05T16:45:45;98451.19;;;11.55;30.59
59106;BME280;44891;50.204;8.132;2023-04-05T16:49:48;98449.75;;;11.30;30.43
59106;BME280;44891;50.204;8.132;2023-04-05T16:53:50;98446.03;;;11.14;30.80
59106;BME280;44891;50.204;8.132;2023-04-05T16:57:53;98445.81;;;10.87;30.61
59106;BME280;44891;50.204;8.132;2023-04-05T17:01:56;98443.16;;;10.59;31.11
59106;BME280;44891;50.204;8.132;2023-04-05T17:05:58;98451.34;;;10.62;31.18
59106;BME280;44891;50.204;8.132;2023-04-05T17:10:01;98449.72;;;10.33;31.60
59106;BME280;44891;50.204;8.132;2023-04-05T17:14:05;98452.44;;;10.03;32.63
59106;BME280;44891;50.204;8.132;2023-04-05T17:18:07;98448.91;;;9.97;33.04
59106;BME280;44891;50.204;8.132;2023-04-05T17:22:09;98460.53;;;9.90;33.06
59106;BME280;44891;50.204;8.132;2023-04-05T17:26:11;98457.56;;;9.74;32.85
59106;BME280;44891;50.204;8.132;2023-04-05T17:30:14;98455.97;;;9.73;33.19
59106;BME280;44891;50.204;8.132;2023-04-05T17:34:16;98455.69;;;9.63;33.30
59106;BME280;44891;50.204;8.132;2023-04-05T17:38:18;98419.34;;;9.55;33.58
59106;BME280;44891;50.204;8.132;2023-04-05T17:42:20;98456.19;;;9.72;35.19
59106;BME280;44891;50.204;8.132;2023-04-05T17:46:23;98455.41;;;9.30;37.90
59106;BME280;44891;50.204;8.132;2023-04-05T17:50:26;98463.50;;;8.98;36.39
59106;BME280;44891;50.204;8.132;2023-04-05T17:54:28;98459.47;;;8.47;38.75
59106;BME280;44891;50.204;8.132;2023-04-05T17:58:31;98465.19;;;8.56;39.43
59106;BME280;44891;50.204;8.132;2023-04-05T18:02:34;98459.69;;;8.46;40.14
59106;BME280;44891;50.204;8.132;2023-04-05T18:06:37;98463.75;;;8.16;39.60
59106;BME280;44891;50.204;8.132;2023-04-05T18:10:39;98472.19;;;8.18;40.76
59106;BME280;44891;50.204;8.132;2023-04-05T18:14:41;98475.88;;;7.93;42.40
59106;BME280;44891;50.204;8.132;2023-04-05T18:18:44;98477.28;;;7.63;44.06
59106;BME280;44891;50.204;8.132;2023-04-05T18:22:46;98482.03;;;7.48;44.15
59106;BME280;44891;50.204;8.132;2023-04-05T18:26:47;98479.81;;;7.14;45.59
59106;BME280;44891;50.204;8.132;2023-04-05T18:30:49;98488.91;;;7.04;46.45
59106;BME280;44891;50.204;8.132;2023-04-05T18:34:53;98487.69;;;7.07;47.13
59106;BME280;44891;50.204;8.132;2023-04-05T18:38:56;98488.59;;;6.81;48.41
59106;BME280;44891;50.204;8.132;2023-04-05T18:42:58;98489.81;;;6.78;48.67
59106;BME280;44891;50.204;8.132;2023-04-05T18:47:00;98494.72;;;6.48;49.00
59106;BME280;44891;50.204;8.132;2023-04-05T18:51:03;98501.94;;;6.40;49.08
59106;BME280;44891;50.204;8.132;2023-04-05T18:55:06;98502.78;;;6.27;48.87
59106;BME280;44891;50.204;8.132;2023-04-05T18:59:08;98504.41;;;6.15;49.37
59106;BME280;44891;50.204;8.132;2023-04-05T19:03:10;98513.19;;;5.87;50.23
59106;BME280;44891;50.204;8.132;2023-04-05T19:07:13;98509.97;;;5.65;50.16
59106;BME280;44891;50.204;8.132;2023-04-05T19:11:15;98510.19;;;5.57;50.79
59106;BME280;44891;50.204;8.132;2023-04-05T19:15:18;98506.19;;;5.61;51.76
59106;BME280;44891;50.204;8.132;2023-04-05T19:19:20;98515.38;;;5.44;52.79
59106;BME280;44891;50.204;8.132;2023-04-05T19:23:23;98513.63;;;4.97;53.22
59106;BME280;44891;50.204;8.132;2023-04-05T19:27:26;98516.84;;;5.05;53.49
59106;BME280;44891;50.204;8.132;2023-04-05T19:31:30;98513.66;;;5.03;54.11
59106;BME280;44891;50.204;8.132;2023-04-05T19:35:32;98521.84;;;5.07;54.24
59106;BME280;44891;50.204;8.132;2023-04-05T19:39:36;98527.03;;;5.00;54.57
59106;BME280;44891;50.204;8.132;2023-04-05T19:43:38;98525.22;;;4.53;55.57
59106;BME280;44891;50.204;8.132;2023-04-05T19:47:40;98520.69;;;4.33;55.94
59106;BME280;44891;50.204;8.132;2023-04-05T19:51:44;98528.50;;;4.05;56.60
59106;BME280;44891;50.204;8.132;2023-04-05T19:55:48;98529.69;;;3.81;57.40
59106;BME280;44891;50.204;8.132;2023-04-05T19:59:50;98529.25;;;3.99;57.71
59106;BME280;44891;50.204;8.132;2023-04-05T20:03:52;98524.75;;;4.15;57.36
59106;BME280;44891;50.204;8.132;2023-04-05T20:07:54;98533.03;;;3.75;57.82
59106;BME280;44891;50.204;8.132;2023-04-05T20:17:02;98533.91;;;3.40;58.71
59106;BME280;44891;50.204;8.132;2023-04-05T20:21:04;98525.63;;;3.51;59.49
59106;BME280;44891;50.204;8.132;2023-04-05T20:25:10;98530.31;;;3.62;59.02
59106;BME280;44891;50.204;8.132;2023-04-05T20:29:29;98528.97;;;3.45;59.69
59106;BME280;44891;50.204;8.132;2023-04-05T20:33:34;98524.44;;;3.53;59.06
59106;BME280;44891;50.204;8.132;2023-04-05T20:37:36;98518.66;;;3.37;59.30
59106;BME280;44891;50.204;8.132;2023-04-05T20:41:38;98530.56;;;3.46;58.78
59106;BME280;44891;50.204;8.132;2023-04-05T20:45:40;98532.69;;;3.21;59.82
59106;BME280;44891;50.204;8.132;2023-04-05T20:49:43;98514.03;;;3.11;60.26
59106;BME280;44891;50.204;8.132;2023-04-05T20:53:47;98522.91;;;3.38;58.92
59106;BME280;44891;50.204;8.132;2023-04-05T20:57:49;98513.34;;;3.23;59.67
59106;BME280;44891;50.204;8.132;2023-04-05T21:01:51;98512.38;;;3.24;60.12
59106;BME280;44891;50.204;8.132;2023-04-05T21:05:54;98519.97;;;3.26;60.24
59106;BME280;44891;50.204;8.132;2023-04-05T21:09:56;98519.72;;;3.21;59.88
59106;BME280;44891;50.204;8.132;2023-04-05T21:13:58;98508.22;;;2.94;59.76
59106;BME280;44891;50.204;8.132;2023-04-05T21:18:00;98507.13;;;3.03;60.43
59106;BME280;44891;50.204;8.132;2023-04-05T21:22:05;98501.44;;;2.93;60.24
59106;BME280;44891;50.204;8.132;2023-04-05T21:26:07;98501.06;;;3.11;60.43
59106;BME280;44891;50.204;8.132;2023-04-05T21:30:09;98500.63;;;2.92;60.95
59106;BME280;44891;50.204;8.132;2023-04-05T21:34:11;98503.09;;;2.64;61.77
59106;BME280;44891;50.204;8.132;2023-04-05T21:38:14;98500.66;;;2.63;61.88
59106;BME280;44891;50.204;8.132;2023-04-05T21:42:16;98502.47;;;2.33;61.81
59106;BME280;44891;50.204;8.132;2023-04-05T21:46:17;98501.28;;;2.06;62.46
59106;BME280;44891;50.204;8.132;2023-04-05T21:50:19;98500.41;;;2.43;61.51
59106;BME280;44891;50.204;8.132;2023-04-05T21:54:23;98503.09;;;2.35;62.02
59106;BME280;44891;50.204;8.132;2023-04-05T21:58:24;98503.63;;;2.45;62.32